Rio Vista Municipal (O88)
Rio Vista, CA
Field Elevation: 22
Lat: 38°11.60N  Long: 121°42.22W
CTAF/Unicom Freq: 122.7250
   
     For Weather-by-Phone, call (707) 374-5396
Weather Advisories
2016-04-30   11:12 Z
Altimeter 29.90" Hg
Wind 200° @ 14 KT
Gusts 22 KT
Visibility 10 SM
Ceiling --
Temperature 15° C (59° F)
Dewpoint 2° C (36° F)
Relative Humidity 42%
Density Altitude --
Condensation Altitude 6,400 feet
Wind and Runways
Indicated Runway = 15
Headwind = 9 kt
Crosswind = 11 kt
History
 
 
 
More Info
All DigiWx sites map
NOAA Forecast
 
Airport IQ 5010
(DUC) Stack Farm
(CA37) Dominican
 
about DigiWx
 
FAA Disclaimer: The data displayed is for advisory purposes only and is not to be used for flight planning or operations. For official data, please call (707) 374-5396 to hear the current automated AWOS voice message.
  METAR O88 301112Z AUTO 20014G22KT VIS 10 SM 15/02 A2990